sensor_id;sensor_type;location;lat;lon;timestamp;pressure;altitude;pressure_sealevel;temperature
21336;BMP180;69435;52.670;13.544;2024-02-26T00:02:37;99785.00;;;6.30
21336;BMP180;69435;52.670;13.544;2024-02-26T00:05:27;99785.00;;;6.20
21336;BMP180;69435;52.670;13.544;2024-02-26T00:08:13;99788.00;;;6.20
21336;BMP180;69435;52.670;13.544;2024-02-26T00:10:59;99784.00;;;6.10
21336;BMP180;69435;52.670;13.544;2024-02-26T00:13:45;99786.00;;;6.10
21336;BMP180;69435;52.670;13.544;2024-02-26T00:16:31;99785.00;;;6.10
21336;BMP180;69435;52.670;13.544;2024-02-26T00:19:17;99774.00;;;6.00
21336;BMP180;69435;52.670;13.544;2024-02-26T00:22:03;99771.00;;;6.00
21336;BMP180;69435;52.670;13.544;2024-02-26T00:24:49;99765.00;;;6.00
21336;BMP180;69435;52.670;13.544;2024-02-26T00:27:35;99777.00;;;6.00
21336;BMP180;69435;52.670;13.544;2024-02-26T00:30:21;99775.00;;;5.90
21336;BMP180;69435;52.670;13.544;2024-02-26T00:33:08;99746.00;;;5.90
21336;BMP180;69435;52.670;13.544;2024-02-26T00:35:54;99769.00;;;5.90
21336;BMP180;69435;52.670;13.544;2024-02-26T00:38:40;99760.00;;;5.80
21336;BMP180;69435;52.670;13.544;2024-02-26T00:41:29;99775.00;;;5.80
21336;BMP180;69435;52.670;13.544;2024-02-26T00:44:15;99769.00;;;5.70
21336;BMP180;69435;52.670;13.544;2024-02-26T00:47:01;99775.00;;;5.70
21336;BMP180;69435;52.670;13.544;2024-02-26T00:49:48;99777.00;;;5.70
21336;BMP180;69435;52.670;13.544;2024-02-26T00:52:35;99755.00;;;5.60
21336;BMP180;69435;52.670;13.544;2024-02-26T00:55:21;99741.00;;;5.60
21336;BMP180;69435;52.670;13.544;2024-02-26T00:58:07;99748.00;;;5.60
21336;BMP180;69435;52.670;13.544;2024-02-26T01:00:53;99754.00;;;5.60
21336;BMP180;69435;52.670;13.544;2024-02-26T01:03:39;99757.00;;;5.60
21336;BMP180;69435;52.670;13.544;2024-02-26T01:06:25;99762.00;;;5.60
21336;BMP180;69435;52.670;13.544;2024-02-26T01:09:11;99745.00;;;5.50
21336;BMP180;69435;52.670;13.544;2024-02-26T01:11:57;99762.00;;;5.50
21336;BMP180;69435;52.670;13.544;2024-02-26T01:14:43;99766.00;;;5.40
21336;BMP180;69435;52.670;13.544;2024-02-26T01:17:29;99758.00;;;5.40
21336;BMP180;69435;52.670;13.544;2024-02-26T01:20:16;99752.00;;;5.40
21336;BMP180;69435;52.670;13.544;2024-02-26T01:23:02;99749.00;;;5.40
21336;BMP180;69435;52.670;13.544;2024-02-26T01:25:48;99756.00;;;5.40
21336;BMP180;69435;52.670;13.544;2024-02-26T01:28:34;99757.00;;;5.30
21336;BMP180;69435;52.670;13.544;2024-02-26T01:31:20;99752.00;;;5.30
21336;BMP180;69435;52.670;13.544;2024-02-26T01:34:06;99688.00;;;5.30
21336;BMP180;69435;52.670;13.544;2024-02-26T01:36:52;99725.00;;;5.30
21336;BMP180;69435;52.670;13.544;2024-02-26T01:39:38;99730.00;;;5.30
21336;BMP180;69435;52.670;13.544;2024-02-26T01:42:26;99727.00;;;5.30
21336;BMP180;69435;52.670;13.544;2024-02-26T01:45:16;99749.00;;;5.30
21336;BMP180;69435;52.670;13.544;2024-02-26T01:48:07;99751.00;;;5.30
21336;BMP180;69435;52.670;13.544;2024-02-26T01:50:53;99740.00;;;5.20
21336;BMP180;69435;52.670;13.544;2024-02-26T01:53:40;99740.00;;;5.20
21336;BMP180;69435;52.670;13.544;2024-02-26T01:56:27;99748.00;;;5.20
21336;BMP180;69435;52.670;13.544;2024-02-26T01:59:16;99748.00;;;5.10
21336;BMP180;69435;52.670;13.544;2024-02-26T02:02:06;99756.00;;;5.10
21336;BMP180;69435;52.670;13.544;2024-02-26T02:04:53;99737.00;;;5.10
21336;BMP180;69435;52.670;13.544;2024-02-26T02:07:40;99743.00;;;5.10
21336;BMP180;69435;52.670;13.544;2024-02-26T02:10:27;99747.00;;;5.10
21336;BMP180;69435;52.670;13.544;2024-02-26T02:13:14;99747.00;;;5.10
21336;BMP180;69435;52.670;13.544;2024-02-26T02:16:00;99745.00;;;5.10
21336;BMP180;69435;52.670;13.544;2024-02-26T02:18:46;99742.00;;;5.10
21336;BMP180;69435;52.670;13.544;2024-02-26T02:21:32;99720.00;;;5.10
21336;BMP180;69435;52.670;13.544;2024-02-26T02:24:18;99724.00;;;5.10
21336;BMP180;69435;52.670;13.544;2024-02-26T02:27:04;99752.00;;;5.00
21336;BMP180;69435;52.670;13.544;2024-02-26T02:29:51;99748.00;;;5.00
21336;BMP180;69435;52.670;13.544;2024-02-26T02:32:40;99754.00;;;5.00
21336;BMP180;69435;52.670;13.544;2024-02-26T02:35:27;99751.00;;;5.00
21336;BMP180;69435;52.670;13.544;2024-02-26T02:38:13;99746.00;;;5.00
21336;BMP180;69435;52.670;13.544;2024-02-26T02:40:59;99751.00;;;5.00
21336;BMP180;69435;52.670;13.544;2024-02-26T02:43:45;99746.00;;;5.00
21336;BMP180;69435;52.670;13.544;2024-02-26T02:46:31;99745.00;;;5.00
21336;BMP180;69435;52.670;13.544;2024-02-26T02:49:19;99751.00;;;5.00
21336;BMP180;69435;52.670;13.544;2024-02-26T02:52:05;99725.00;;;5.00
21336;BMP180;69435;52.670;13.544;2024-02-26T02:54:51;99741.00;;;4.90
21336;BMP180;69435;52.670;13.544;2024-02-26T02:57:37;99739.00;;;4.90
21336;BMP180;69435;52.670;13.544;2024-02-26T03:00:26;99756.00;;;4.90
21336;BMP180;69435;52.670;13.544;2024-02-26T03:03:12;99757.00;;;4.90
21336;BMP180;69435;52.670;13.544;2024-02-26T03:05:59;99752.00;;;4.90
21336;BMP180;69435;52.670;13.544;2024-02-26T03:08:45;99752.00;;;4.80
21336;BMP180;69435;52.670;13.544;2024-02-26T03:11:31;99743.00;;;4.80
21336;BMP180;69435;52.670;13.544;2024-02-26T03:14:17;99764.00;;;4.80
21336;BMP180;69435;52.670;13.544;2024-02-26T03:17:03;99762.00;;;4.80
21336;BMP180;69435;52.670;13.544;2024-02-26T03:19:49;99763.00;;;4.80
21336;BMP180;69435;52.670;13.544;2024-02-26T03:22:39;99743.00;;;4.80
21336;BMP180;69435;52.670;13.544;2024-02-26T03:25:25;99773.00;;;4.80
21336;BMP180;69435;52.670;13.544;2024-02-26T03:28:11;99778.00;;;4.80
21336;BMP180;69435;52.670;13.544;2024-02-26T03:30:59;99758.00;;;4.70
21336;BMP180;69435;52.670;13.544;2024-02-26T03:33:45;99738.00;;;4.70
21336;BMP180;69435;52.670;13.544;2024-02-26T03:36:31;99766.00;;;4.70
21336;BMP180;69435;52.670;13.544;2024-02-26T03:39:17;99759.00;;;4.70
21336;BMP180;69435;52.670;13.544;2024-02-26T03:42:04;99765.00;;;4.70
21336;BMP180;69435;52.670;13.544;2024-02-26T03:44:50;99762.00;;;4.60
21336;BMP180;69435;52.670;13.544;2024-02-26T03:47:38;99755.00;;;4.70
21336;BMP180;69435;52.670;13.544;2024-02-26T03:50:26;99759.00;;;4.70
21336;BMP180;69435;52.670;13.544;2024-02-26T03:53:12;99770.00;;;4.70
21336;BMP180;69435;52.670;13.544;2024-02-26T03:56:04;99777.00;;;4.60
21336;BMP180;69435;52.670;13.544;2024-02-26T03:58:50;99767.00;;;4.60
21336;BMP180;69435;52.670;13.544;2024-02-26T04:01:36;99768.00;;;4.60
21336;BMP180;69435;52.670;13.544;2024-02-26T04:04:22;99769.00;;;4.60
21336;BMP180;69435;52.670;13.544;2024-02-26T04:07:08;99767.00;;;4.60
21336;BMP180;69435;52.670;13.544;2024-02-26T04:09:54;99771.00;;;4.60
21336;BMP180;69435;52.670;13.544;2024-02-26T04:12:42;99773.00;;;4.60
21336;BMP180;69435;52.670;13.544;2024-02-26T04:15:28;99779.00;;;4.60
21336;BMP180;69435;52.670;13.544;2024-02-26T04:18:14;99739.00;;;4.60
21336;BMP180;69435;52.670;13.544;2024-02-26T04:21:00;99771.00;;;4.60
21336;BMP180;69435;52.670;13.544;2024-02-26T04:23:46;99779.00;;;4.60
21336;BMP180;69435;52.670;13.544;2024-02-26T04:26:35;99794.00;;;4.60
21336;BMP180;69435;52.670;13.544;2024-02-26T04:29:21;99778.00;;;4.60
21336;BMP180;69435;52.670;13.544;2024-02-26T04:32:07;99788.00;;;4.60
21336;BMP180;69435;52.670;13.544;2024-02-26T04:34:53;99786.00;;;4.60
21336;BMP180;69435;52.670;13.544;2024-02-26T04:37:39;99789.00;;;4.60
21336;BMP180;69435;52.670;13.544;2024-02-26T04:40:25;99790.00;;;4.60
21336;BMP180;69435;52.670;13.544;2024-02-26T04:43:12;99797.00;;;4.60
21336;BMP180;69435;52.670;13.544;2024-02-26T04:45:58;99794.00;;;4.60
21336;BMP180;69435;52.670;13.544;2024-02-26T04:48:44;99794.00;;;4.60
21336;BMP180;69435;52.670;13.544;2024-02-26T04:51:32;99805.00;;;4.60
21336;BMP180;69435;52.670;13.544;2024-02-26T04:54:18;99812.00;;;4.50
21336;BMP180;69435;52.670;13.544;2024-02-26T04:57:04;99807.00;;;4.50
21336;BMP180;69435;52.670;13.544;2024-02-26T04:59:50;99810.00;;;4.50
21336;BMP180;69435;52.670;13.544;2024-02-26T05:02:36;99813.00;;;4.50
21336;BMP180;69435;52.670;13.544;2024-02-26T05:05:24;99817.00;;;4.50
21336;BMP180;69435;52.670;13.544;2024-02-26T05:08:11;99829.00;;;4.50
21336;BMP180;69435;52.670;13.544;2024-02-26T05:10:57;99789.00;;;4.50
21336;BMP180;69435;52.670;13.544;2024-02-26T05:13:43;99831.00;;;4.50
21336;BMP180;69435;52.670;13.544;2024-02-26T05:16:31;99826.00;;;4.50
21336;BMP180;69435;52.670;13.544;2024-02-26T05:19:17;99807.00;;;4.50
21336;BMP180;69435;52.670;13.544;2024-02-26T05:22:03;99836.00;;;4.60
21336;BMP180;69435;52.670;13.544;2024-02-26T05:24:49;99838.00;;;4.60
21336;BMP180;69435;52.670;13.544;2024-02-26T05:27:36;99836.00;;;4.60
21336;BMP180;69435;52.670;13.544;2024-02-26T05:30:22;99835.00;;;4.60
21336;BMP180;69435;52.670;13.544;2024-02-26T05:33:08;99844.00;;;4.60
21336;BMP180;69435;52.670;13.544;2024-02-26T05:35:54;99838.00;;;4.60
21336;BMP180;69435;52.670;13.544;2024-02-26T05:38:40;99831.00;;;4.60
21336;BMP180;69435;52.670;13.544;2024-02-26T05:41:26;99842.00;;;4.60
21336;BMP180;69435;52.670;13.544;2024-02-26T05:44:12;99846.00;;;4.60
21336;BMP180;69435;52.670;13.544;2024-02-26T05:46:59;99856.00;;;4.60
21336;BMP180;69435;52.670;13.544;2024-02-26T05:49:45;99864.00;;;4.50
21336;BMP180;69435;52.670;13.544;2024-02-26T05:52:31;99855.00;;;4.50
21336;BMP180;69435;52.670;13.544;2024-02-26T05:55:17;99863.00;;;4.50
21336;BMP180;69435;52.670;13.544;2024-02-26T05:58:04;99843.00;;;4.60
21336;BMP180;69435;52.670;13.544;2024-02-26T06:00:50;99847.00;;;4.50
21336;BMP180;69435;52.670;13.544;2024-02-26T06:03:36;99868.00;;;4.60
21336;BMP180;69435;52.670;13.544;2024-02-26T06:06:22;99875.00;;;4.60
21336;BMP180;69435;52.670;13.544;2024-02-26T06:09:09;99857.00;;;4.60
21336;BMP180;69435;52.670;13.544;2024-02-26T06:11:56;99872.00;;;4.60
21336;BMP180;69435;52.670;13.544;2024-02-26T06:14:43;99868.00;;;4.60
21336;BMP180;69435;52.670;13.544;2024-02-26T06:17:29;99869.00;;;4.70
21336;BMP180;69435;52.670;13.544;2024-02-26T06:20:15;99880.00;;;4.70
21336;BMP180;69435;52.670;13.544;2024-02-26T06:23:01;99870.00;;;4.70
21336;BMP180;69435;52.670;13.544;2024-02-26T06:25:47;99868.00;;;4.80
21336;BMP180;69435;52.670;13.544;2024-02-26T06:28:33;99881.00;;;4.80
21336;BMP180;69435;52.670;13.544;2024-02-26T06:31:22;99882.00;;;4.90
21336;BMP180;69435;52.670;13.544;2024-02-26T06:34:08;99883.00;;;5.00
21336;BMP180;69435;52.670;13.544;2024-02-26T06:36:54;99822.00;;;5.00
21336;BMP180;69435;52.670;13.544;2024-02-26T06:39:40;99870.00;;;5.10
21336;BMP180;69435;52.670;13.544;2024-02-26T06:42:27;99891.00;;;5.10
21336;BMP180;69435;52.670;13.544;2024-02-26T06:45:15;99872.00;;;5.20
21336;BMP180;69435;52.670;13.544;2024-02-26T06:48:01;99908.00;;;5.30
21336;BMP180;69435;52.670;13.544;2024-02-26T06:50:48;99899.00;;;5.40
21336;BMP180;69435;52.670;13.544;2024-02-26T06:53:34;99884.00;;;5.40
21336;BMP180;69435;52.670;13.544;2024-02-26T06:56:21;99881.00;;;5.60
21336;BMP180;69435;52.670;13.544;2024-02-26T06:59:07;99882.00;;;5.70
21336;BMP180;69435;52.670;13.544;2024-02-26T07:01:53;99891.00;;;5.80
21336;BMP180;69435;52.670;13.544;2024-02-26T07:04:40;99889.00;;;5.90
21336;BMP180;69435;52.670;13.544;2024-02-26T07:07:26;99901.00;;;6.00
21336;BMP180;69435;52.670;13.544;2024-02-26T07:10:12;99899.00;;;6.10
21336;BMP180;69435;52.670;13.544;2024-02-26T07:12:58;99908.00;;;6.30
21336;BMP180;69435;52.670;13.544;2024-02-26T07:15:44;99892.00;;;6.40
21336;BMP180;69435;52.670;13.544;2024-02-26T07:18:30;99927.00;;;6.50
21336;BMP180;69435;52.670;13.544;2024-02-26T07:21:16;99931.00;;;6.80
21336;BMP180;69435;52.670;13.544;2024-02-26T07:24:03;99938.00;;;7.10
21336;BMP180;69435;52.670;13.544;2024-02-26T07:26:49;99936.00;;;7.70
21336;BMP180;69435;52.670;13.544;2024-02-26T07:29:35;99943.00;;;8.40
21336;BMP180;69435;52.670;13.544;2024-02-26T07:32:21;99924.00;;;9.20
21336;BMP180;69435;52.670;13.544;2024-02-26T07:35:08;99931.00;;;10.10
21336;BMP180;69435;52.670;13.544;2024-02-26T07:37:54;99932.00;;;11.00
21336;BMP180;69435;52.670;13.544;2024-02-26T07:40:40;99934.00;;;11.80
21336;BMP180;69435;52.670;13.544;2024-02-26T07:43:26;99926.00;;;12.50
21336;BMP180;69435;52.670;13.544;2024-02-26T07:46:12;99906.00;;;13.20
21336;BMP180;69435;52.670;13.544;2024-02-26T07:48:58;99902.00;;;13.80
21336;BMP180;69435;52.670;13.544;2024-02-26T07:51:44;99914.00;;;14.30
21336;BMP180;69435;52.670;13.544;2024-02-26T07:54:30;99927.00;;;14.90
21336;BMP180;69435;52.670;13.544;2024-02-26T07:57:16;99928.00;;;15.30
21336;BMP180;69435;52.670;13.544;2024-02-26T08:00:04;99924.00;;;15.60
21336;BMP180;69435;52.670;13.544;2024-02-26T08:02:53;99927.00;;;15.90
21336;BMP180;69435;52.670;13.544;2024-02-26T08:05:39;99928.00;;;16.30
21336;BMP180;69435;52.670;13.544;2024-02-26T08:08:26;99932.00;;;16.50
21336;BMP180;69435;52.670;13.544;2024-02-26T08:11:15;99939.00;;;16.80
21336;BMP180;69435;52.670;13.544;2024-02-26T08:14:01;99931.00;;;17.00
21336;BMP180;69435;52.670;13.544;2024-02-26T08:16:47;99933.00;;;17.00
21336;BMP180;69435;52.670;13.544;2024-02-26T08:19:34;99918.00;;;17.10
21336;BMP180;69435;52.670;13.544;2024-02-26T08:22:21;99918.00;;;17.00
21336;BMP180;69435;52.670;13.544;2024-02-26T08:25:08;99927.00;;;16.80
21336;BMP180;69435;52.670;13.544;2024-02-26T08:27:55;99940.00;;;16.60
21336;BMP180;69435;52.670;13.544;2024-02-26T08:30:42;99932.00;;;16.30
21336;BMP180;69435;52.670;13.544;2024-02-26T08:33:28;99913.00;;;16.10
21336;BMP180;69435;52.670;13.544;2024-02-26T08:36:14;99926.00;;;15.80
21336;BMP180;69435;52.670;13.544;2024-02-26T08:39:00;99939.00;;;15.60
21336;BMP180;69435;52.670;13.544;2024-02-26T08:41:46;99934.00;;;15.40
21336;BMP180;69435;52.670;13.544;2024-02-26T08:44:32;99932.00;;;15.20
21336;BMP180;69435;52.670;13.544;2024-02-26T08:47:18;99927.00;;;14.90
21336;BMP180;69435;52.670;13.544;2024-02-26T08:50:05;99928.00;;;14.80
21336;BMP180;69435;52.670;13.544;2024-02-26T08:52:52;99940.00;;;14.70
21336;BMP180;69435;52.670;13.544;2024-02-26T08:55:39;99936.00;;;14.70
21336;BMP180;69435;52.670;13.544;2024-02-26T08:58:25;99930.00;;;14.80
21336;BMP180;69435;52.670;13.544;2024-02-26T09:01:12;99936.00;;;15.00
21336;BMP180;69435;52.670;13.544;2024-02-26T09:03:58;99927.00;;;15.10
21336;BMP180;69435;52.670;13.544;2024-02-26T09:06:44;99935.00;;;15.40
21336;BMP180;69435;52.670;13.544;2024-02-26T09:09:30;99933.00;;;15.80
21336;BMP180;69435;52.670;13.544;2024-02-26T09:12:16;99915.00;;;16.20
21336;BMP180;69435;52.670;13.544;2024-02-26T09:15:02;99932.00;;;16.60
21336;BMP180;69435;52.670;13.544;2024-02-26T09:17:49;99928.00;;;16.80
21336;BMP180;69435;52.670;13.544;2024-02-26T09:20:36;99933.00;;;16.90
21336;BMP180;69435;52.670;13.544;2024-02-26T09:23:22;99933.00;;;17.10
21336;BMP180;69435;52.670;13.544;2024-02-26T09:26:08;99939.00;;;17.30
21336;BMP180;69435;52.670;13.544;2024-02-26T09:28:54;99928.00;;;17.50
21336;BMP180;69435;52.670;13.544;2024-02-26T09:31:41;99933.00;;;17.70
21336;BMP180;69435;52.670;13.544;2024-02-26T09:34:27;99878.00;;;17.90
21336;BMP180;69435;52.670;13.544;2024-02-26T09:37:13;99940.00;;;18.00
21336;BMP180;69435;52.670;13.544;2024-02-26T09:39:59;99936.00;;;18.10
21336;BMP180;69435;52.670;13.544;2024-02-26T09:42:46;99942.00;;;18.00
21336;BMP180;69435;52.670;13.544;2024-02-26T09:45:33;99929.00;;;18.00
21336;BMP180;69435;52.670;13.544;2024-02-26T09:48:20;99936.00;;;18.10
21336;BMP180;69435;52.670;13.544;2024-02-26T09:51:11;99937.00;;;18.30
21336;BMP180;69435;52.670;13.544;2024-02-26T09:54:00;99919.00;;;18.40
21336;BMP180;69435;52.670;13.544;2024-02-26T09:56:51;99943.00;;;18.60
21336;BMP180;69435;52.670;13.544;2024-02-26T09:59:41;99943.00;;;18.80
21336;BMP180;69435;52.670;13.544;2024-02-26T10:02:28;99950.00;;;18.90
21336;BMP180;69435;52.670;13.544;2024-02-26T10:05:18;99940.00;;;19.00
21336;BMP180;69435;52.670;13.544;2024-02-26T10:08:09;99954.00;;;19.00
21336;BMP180;69435;52.670;13.544;2024-02-26T10:10:56;99950.00;;;19.00
21336;BMP180;69435;52.670;13.544;2024-02-26T10:13:42;99957.00;;;19.00
21336;BMP180;69435;52.670;13.544;2024-02-26T10:16:29;99948.00;;;19.10
21336;BMP180;69435;52.670;13.544;2024-02-26T10:19:28;99960.00;;;19.10
21336;BMP180;69435;52.670;13.544;2024-02-26T10:22:15;99966.00;;;19.00
21336;BMP180;69435;52.670;13.544;2024-02-26T10:25:01;99961.00;;;19.10
21336;BMP180;69435;52.670;13.544;2024-02-26T10:27:47;99955.00;;;19.00
21336;BMP180;69435;52.670;13.544;2024-02-26T10:30:36;99958.00;;;19.00
21336;BMP180;69435;52.670;13.544;2024-02-26T10:33:24;99964.00;;;19.00
21336;BMP180;69435;52.670;13.544;2024-02-26T10:36:11;99969.00;;;19.00
21336;BMP180;69435;52.670;13.544;2024-02-26T10:39:01;99923.00;;;19.00
21336;BMP180;69435;52.670;13.544;2024-02-26T10:41:48;99969.00;;;18.90
21336;BMP180;69435;52.670;13.544;2024-02-26T10:44:34;99948.00;;;18.90
21336;BMP180;69435;52.670;13.544;2024-02-26T10:47:21;99950.00;;;18.80
21336;BMP180;69435;52.670;13.544;2024-02-26T10:50:08;99961.00;;;18.70
21336;BMP180;69435;52.670;13.544;2024-02-26T10:52:55;99959.00;;;18.70
21336;BMP180;69435;52.670;13.544;2024-02-26T10:55:52;99958.00;;;18.80
21336;BMP180;69435;52.670;13.544;2024-02-26T10:58:39;99963.00;;;19.00
21336;BMP180;69435;52.670;13.544;2024-02-26T11:01:27;99960.00;;;19.10
21336;BMP180;69435;52.670;13.544;2024-02-26T11:04:19;99951.00;;;19.20
21336;BMP180;69435;52.670;13.544;2024-02-26T11:07:08;99953.00;;;19.20
21336;BMP180;69435;52.670;13.544;2024-02-26T11:09:56;99957.00;;;19.20
21336;BMP180;69435;52.670;13.544;2024-02-26T11:12:43;99940.00;;;19.20
21336;BMP180;69435;52.670;13.544;2024-02-26T11:15:30;99958.00;;;19.10
21336;BMP180;69435;52.670;13.544;2024-02-26T11:18:20;99944.00;;;19.00
21336;BMP180;69435;52.670;13.544;2024-02-26T11:21:12;99950.00;;;18.90
21336;BMP180;69435;52.670;13.544;2024-02-26T11:23:59;99955.00;;;18.70
21336;BMP180;69435;52.670;13.544;2024-02-26T11:26:48;99944.00;;;18.70
21336;BMP180;69435;52.670;13.544;2024-02-26T11:29:43;99963.00;;;18.60
21336;BMP180;69435;52.670;13.544;2024-02-26T11:32:30;99949.00;;;18.50
21336;BMP180;69435;52.670;13.544;2024-02-26T11:35:17;99932.00;;;18.40
21336;BMP180;69435;52.670;13.544;2024-02-26T11:38:05;99952.00;;;18.30
21336;BMP180;69435;52.670;13.544;2024-02-26T11:40:53;99950.00;;;18.30
21336;BMP180;69435;52.670;13.544;2024-02-26T11:44:01;99957.00;;;18.30
21336;BMP180;69435;52.670;13.544;2024-02-26T11:46:47;99931.00;;;18.20
21336;BMP180;69435;52.670;13.544;2024-02-26T11:49:34;99955.00;;;18.30
21336;BMP180;69435;52.670;13.544;2024-02-26T11:52:21;99947.00;;;18.20
21336;BMP180;69435;52.670;13.544;2024-02-26T11:55:07;99954.00;;;18.20
21336;BMP180;69435;52.670;13.544;2024-02-26T11:57:55;99957.00;;;18.20
21336;BMP180;69435;52.670;13.544;2024-02-26T12:00:42;99941.00;;;18.20
21336;BMP180;69435;52.670;13.544;2024-02-26T12:03:29;99956.00;;;18.10
21336;BMP180;69435;52.670;13.544;2024-02-26T12:06:15;99940.00;;;18.10
21336;BMP180;69435;52.670;13.544;2024-02-26T12:09:05;99959.00;;;18.00
21336;BMP180;69435;52.670;13.544;2024-02-26T12:11:51;99953.00;;;17.90
21336;BMP180;69435;52.670;13.544;2024-02-26T12:14:52;99935.00;;;17.80
21336;BMP180;69435;52.670;13.544;2024-02-26T12:17:38;99947.00;;;17.70
21336;BMP180;69435;52.670;13.544;2024-02-26T12:20:24;99947.00;;;17.60
21336;BMP180;69435;52.670;13.544;2024-02-26T12:23:17;99954.00;;;17.70
21336;BMP180;69435;52.670;13.544;2024-02-26T12:26:04;99957.00;;;17.70
21336;BMP180;69435;52.670;13.544;2024-02-26T12:28:50;99957.00;;;17.70
21336;BMP180;69435;52.670;13.544;2024-02-26T12:31:36;99959.00;;;17.70
21336;BMP180;69435;52.670;13.544;2024-02-26T12:34:23;99954.00;;;17.60
21336;BMP180;69435;52.670;13.544;2024-02-26T12:37:09;99963.00;;;17.60
21336;BMP180;69435;52.670;13.544;2024-02-26T12:39:56;99966.00;;;17.60
21336;BMP180;69435;52.670;13.544;2024-02-26T12:42:42;99952.00;;;17.60
21336;BMP180;69435;52.670;13.544;2024-02-26T12:45:28;99943.00;;;17.60
21336;BMP180;69435;52.670;13.544;2024-02-26T12:48:14;99964.00;;;17.60
21336;BMP180;69435;52.670;13.544;2024-02-26T12:51:00;99968.00;;;17.50
21336;BMP180;69435;52.670;13.544;2024-02-26T12:53:47;99962.00;;;17.50
21336;BMP180;69435;52.670;13.544;2024-02-26T12:56:35;99955.00;;;17.50
21336;BMP180;69435;52.670;13.544;2024-02-26T12:59:22;99970.00;;;17.50
21336;BMP180;69435;52.670;13.544;2024-02-26T13:02:08;99966.00;;;17.50
21336;BMP180;69435;52.670;13.544;2024-02-26T13:04:55;99948.00;;;17.60
21336;BMP180;69435;52.670;13.544;2024-02-26T13:07:43;99967.00;;;17.50
21336;BMP180;69435;52.670;13.544;2024-02-26T13:10:31;99957.00;;;17.50
21336;BMP180;69435;52.670;13.544;2024-02-26T13:13:20;99968.00;;;17.40
21336;BMP180;69435;52.670;13.544;2024-02-26T13:16:14;99959.00;;;17.30
21336;BMP180;69435;52.670;13.544;2024-02-26T13:19:10;99968.00;;;17.20
21336;BMP180;69435;52.670;13.544;2024-02-26T13:22:03;99964.00;;;17.10
21336;BMP180;69435;52.670;13.544;2024-02-26T13:24:57;99962.00;;;16.90
21336;BMP180;69435;52.670;13.544;2024-02-26T13:27:43;99967.00;;;16.90
21336;BMP180;69435;52.670;13.544;2024-02-26T13:30:29;99955.00;;;16.80
21336;BMP180;69435;52.670;13.544;2024-02-26T13:33:15;99962.00;;;16.70
21336;BMP180;69435;52.670;13.544;2024-02-26T13:36:02;99942.00;;;16.70
21336;BMP180;69435;52.670;13.544;2024-02-26T13:38:55;99961.00;;;16.60
21336;BMP180;69435;52.670;13.544;2024-02-26T13:41:41;99968.00;;;16.60
21336;BMP180;69435;52.670;13.544;2024-02-26T13:44:29;99977.00;;;16.60
21336;BMP180;69435;52.670;13.544;2024-02-26T13:47:15;99972.00;;;16.60
21336;BMP180;69435;52.670;13.544;2024-02-26T13:50:02;99974.00;;;16.60
21336;BMP180;69435;52.670;13.544;2024-02-26T13:52:48;99969.00;;;16.70
21336;BMP180;69435;52.670;13.544;2024-02-26T13:55:40;99980.00;;;16.70
21336;BMP180;69435;52.670;13.544;2024-02-26T13:58:28;99988.00;;;16.70
21336;BMP180;69435;52.670;13.544;2024-02-26T14:01:15;99985.00;;;16.70
21336;BMP180;69435;52.670;13.544;2024-02-26T14:04:01;99983.00;;;16.70
21336;BMP180;69435;52.670;13.544;2024-02-26T14:06:48;99984.00;;;16.60
21336;BMP180;69435;52.670;13.544;2024-02-26T14:09:34;99967.00;;;16.60
21336;BMP180;69435;52.670;13.544;2024-02-26T14:12:20;99994.00;;;16.50
21336;BMP180;69435;52.670;13.544;2024-02-26T14:15:08;99997.00;;;16.50
21336;BMP180;69435;52.670;13.544;2024-02-26T14:17:55;99994.00;;;16.50
21336;BMP180;69435;52.670;13.544;2024-02-26T14:20:44;100013.00;;;16.50
21336;BMP180;69435;52.670;13.544;2024-02-26T14:23:30;100014.00;;;16.50
21336;BMP180;69435;52.670;13.544;2024-02-26T14:26:16;100007.00;;;16.40
21336;BMP180;69435;52.670;13.544;2024-02-26T14:29:02;100019.00;;;16.40
21336;BMP180;69435;52.670;13.544;2024-02-26T14:31:49;100023.00;;;16.30
21336;BMP180;69435;52.670;13.544;2024-02-26T14:34:35;100027.00;;;16.30
21336;BMP180;69435;52.670;13.544;2024-02-26T14:37:22;100040.00;;;16.20
21336;BMP180;69435;52.670;13.544;2024-02-26T14:40:08;100041.00;;;16.10
21336;BMP180;69435;52.670;13.544;2024-02-26T14:42:54;100039.00;;;16.10
21336;BMP180;69435;52.670;13.544;2024-02-26T14:45:40;100033.00;;;16.00
21336;BMP180;69435;52.670;13.544;2024-02-26T14:48:27;100029.00;;;16.00
21336;BMP180;69435;52.670;13.544;2024-02-26T14:51:15;100052.00;;;16.00
21336;BMP180;69435;52.670;13.544;2024-02-26T14:54:01;100043.00;;;16.00
21336;BMP180;69435;52.670;13.544;2024-02-26T14:56:48;100058.00;;;16.00
21336;BMP180;69435;52.670;13.544;2024-02-26T14:59:34;100062.00;;;16.00
21336;BMP180;69435;52.670;13.544;2024-02-26T15:02:22;100049.00;;;16.00
21336;BMP180;69435;52.670;13.544;2024-02-26T15:05:08;100067.00;;;15.90
21336;BMP180;69435;52.670;13.544;2024-02-26T15:07:56;100079.00;;;15.90
21336;BMP180;69435;52.670;13.544;2024-02-26T15:10:42;100078.00;;;15.80
21336;BMP180;69435;52.670;13.544;2024-02-26T15:13:36;100070.00;;;15.80
21336;BMP180;69435;52.670;13.544;2024-02-26T15:16:22;100083.00;;;15.70
21336;BMP180;69435;52.670;13.544;2024-02-26T15:19:08;100087.00;;;15.60
21336;BMP180;69435;52.670;13.544;2024-02-26T15:21:54;100094.00;;;15.60
21336;BMP180;69435;52.670;13.544;2024-02-26T15:24:40;100081.00;;;15.50
21336;BMP180;69435;52.670;13.544;2024-02-26T15:27:26;100092.00;;;15.40
21336;BMP180;69435;52.670;13.544;2024-02-26T15:30:12;100093.00;;;15.30
21336;BMP180;69435;52.670;13.544;2024-02-26T15:33:00;100092.00;;;15.30
21336;BMP180;69435;52.670;13.544;2024-02-26T15:35:46;100028.00;;;15.20
21336;BMP180;69435;52.670;13.544;2024-02-26T15:38:32;100097.00;;;15.20
21336;BMP180;69435;52.670;13.544;2024-02-26T15:41:18;100102.00;;;15.20
21336;BMP180;69435;52.670;13.544;2024-02-26T15:44:06;100102.00;;;15.10
21336;BMP180;69435;52.670;13.544;2024-02-26T15:46:52;100112.00;;;15.10
21336;BMP180;69435;52.670;13.544;2024-02-26T15:49:39;100109.00;;;15.10
21336;BMP180;69435;52.670;13.544;2024-02-26T15:52:25;100095.00;;;15.00
21336;BMP180;69435;52.670;13.544;2024-02-26T15:55:12;100116.00;;;15.00